sensor_id;sensor_type;location;lat;lon;timestamp;P1;durP1;ratioP1;P2;durP2;ratioP2
846;SDS011;410;48.954;9.474;2022-08-21T00:00:18;5.40;;;4.47;;
846;SDS011;410;48.954;9.474;2022-08-21T00:02:24;5.10;;;4.60;;
846;SDS011;410;48.954;9.474;2022-08-21T00:04:30;6.17;;;4.93;;
846;SDS011;410;48.954;9.474;2022-08-21T00:06:33;6.27;;;5.27;;
846;SDS011;410;48.954;9.474;2022-08-21T00:08:37;4.93;;;4.40;;
846;SDS011;410;48.954;9.474;2022-08-21T00:10:40;5.70;;;4.80;;
846;SDS011;410;48.954;9.474;2022-08-21T00:12:44;5.30;;;4.80;;
846;SDS011;410;48.954;9.474;2022-08-21T00:14:47;4.93;;;4.43;;
846;SDS011;410;48.954;9.474;2022-08-21T00:16:50;5.80;;;5.20;;
846;SDS011;410;48.954;9.474;2022-08-21T00:18:57;5.80;;;4.80;;
846;SDS011;410;48.954;9.474;2022-08-21T00:21:02;5.20;;;4.70;;
846;SDS011;410;48.954;9.474;2022-08-21T00:23:05;6.50;;;5.33;;
846;SDS011;410;48.954;9.474;2022-08-21T00:25:09;6.67;;;4.70;;
846;SDS011;410;48.954;9.474;2022-08-21T00:27:12;5.70;;;4.97;;
846;SDS011;410;48.954;9.474;2022-08-21T00:29:15;4.57;;;4.17;;
846;SDS011;410;48.954;9.474;2022-08-21T00:31:19;6.63;;;4.73;;
846;SDS011;410;48.954;9.474;2022-08-21T00:33:22;7.77;;;4.70;;
846;SDS011;410;48.954;9.474;2022-08-21T00:35:26;5.60;;;4.07;;
846;SDS011;410;48.954;9.474;2022-08-21T00:37:32;4.93;;;4.50;;
846;SDS011;410;48.954;9.474;2022-08-21T00:39:35;5.63;;;4.70;;
846;SDS011;410;48.954;9.474;2022-08-21T00:41:39;5.30;;;4.70;;
846;SDS011;410;48.954;9.474;2022-08-21T00:43:42;4.30;;;3.90;;
846;SDS011;410;48.954;9.474;2022-08-21T00:45:45;6.37;;;4.40;;
846;SDS011;410;48.954;9.474;2022-08-21T00:47:48;4.47;;;4.07;;
846;SDS011;410;48.954;9.474;2022-08-21T00:49:51;6.23;;;4.33;;
846;SDS011;410;48.954;9.474;2022-08-21T00:51:55;4.80;;;4.30;;
846;SDS011;410;48.954;9.474;2022-08-21T00:54:02;5.57;;;4.40;;
846;SDS011;410;48.954;9.474;2022-08-21T00:56:17;6.30;;;4.00;;
846;SDS011;410;48.954;9.474;2022-08-21T00:58:21;5.57;;;4.33;;
846;SDS011;410;48.954;9.474;2022-08-21T01:00:27;5.10;;;4.13;;
846;SDS011;410;48.954;9.474;2022-08-21T01:02:32;4.80;;;3.80;;
846;SDS011;410;48.954;9.474;2022-08-21T01:04:36;5.00;;;4.20;;
846;SDS011;410;48.954;9.474;2022-08-21T01:06:39;5.33;;;3.87;;
846;SDS011;410;48.954;9.474;2022-08-21T01:08:43;4.93;;;4.03;;
846;SDS011;410;48.954;9.474;2022-08-21T01:10:49;6.23;;;4.83;;
846;SDS011;410;48.954;9.474;2022-08-21T01:12:59;7.03;;;5.47;;
846;SDS011;410;48.954;9.474;2022-08-21T01:15:04;5.40;;;4.73;;
846;SDS011;410;48.954;9.474;2022-08-21T01:17:09;8.00;;;5.20;;
846;SDS011;410;48.954;9.474;2022-08-21T01:19:14;6.87;;;5.47;;
846;SDS011;410;48.954;9.474;2022-08-21T01:21:20;7.67;;;5.17;;
846;SDS011;410;48.954;9.474;2022-08-21T01:23:29;6.47;;;5.33;;
846;SDS011;410;48.954;9.474;2022-08-21T01:25:33;8.53;;;5.40;;
846;SDS011;410;48.954;9.474;2022-08-21T01:27:37;7.20;;;5.43;;
846;SDS011;410;48.954;9.474;2022-08-21T01:29:42;6.80;;;4.93;;
846;SDS011;410;48.954;9.474;2022-08-21T01:31:47;7.37;;;5.60;;
846;SDS011;410;48.954;9.474;2022-08-21T01:33:51;8.03;;;6.00;;
846;SDS011;410;48.954;9.474;2022-08-21T01:35:54;8.53;;;5.43;;
846;SDS011;410;48.954;9.474;2022-08-21T01:38:00;15.10;;;5.80;;
846;SDS011;410;48.954;9.474;2022-08-21T01:40:04;10.60;;;5.93;;
846;SDS011;410;48.954;9.474;2022-08-21T01:42:09;17.87;;;5.83;;
846;SDS011;410;48.954;9.474;2022-08-21T01:44:12;23.13;;;6.10;;
846;SDS011;410;48.954;9.474;2022-08-21T01:46:16;26.70;;;5.70;;
846;SDS011;410;48.954;9.474;2022-08-21T01:48:20;15.20;;;5.80;;
846;SDS011;410;48.954;9.474;2022-08-21T01:50:23;18.80;;;5.97;;
846;SDS011;410;48.954;9.474;2022-08-21T01:52:28;32.23;;;7.10;;
846;SDS011;410;48.954;9.474;2022-08-21T01:54:33;13.40;;;6.30;;
846;SDS011;410;48.954;9.474;2022-08-21T01:56:37;9.50;;;5.47;;
846;SDS011;410;48.954;9.474;2022-08-21T01:58:42;11.07;;;5.47;;
846;SDS011;410;48.954;9.474;2022-08-21T02:00:47;8.47;;;5.30;;
846;SDS011;410;48.954;9.474;2022-08-21T02:02:54;9.60;;;5.10;;
846;SDS011;410;48.954;9.474;2022-08-21T02:04:58;6.03;;;5.43;;
846;SDS011;410;48.954;9.474;2022-08-21T02:07:02;14.10;;;5.27;;
846;SDS011;410;48.954;9.474;2022-08-21T02:09:09;10.80;;;5.53;;
846;SDS011;410;48.954;9.474;2022-08-21T02:11:15;8.57;;;4.93;;
846;SDS011;410;48.954;9.474;2022-08-21T02:13:18;9.60;;;4.67;;
846;SDS011;410;48.954;9.474;2022-08-21T02:15:22;11.80;;;5.10;;
846;SDS011;410;48.954;9.474;2022-08-21T02:17:25;10.20;;;4.53;;
846;SDS011;410;48.954;9.474;2022-08-21T02:19:29;15.63;;;5.00;;
846;SDS011;410;48.954;9.474;2022-08-21T02:21:41;7.10;;;4.63;;
846;SDS011;410;48.954;9.474;2022-08-21T02:23:45;11.17;;;4.77;;
846;SDS011;410;48.954;9.474;2022-08-21T02:25:49;17.70;;;5.03;;
846;SDS011;410;48.954;9.474;2022-08-21T02:27:54;25.33;;;5.90;;
846;SDS011;410;48.954;9.474;2022-08-21T02:29:58;7.37;;;4.63;;
846;SDS011;410;48.954;9.474;2022-08-21T02:32:02;14.57;;;4.43;;
846;SDS011;410;48.954;9.474;2022-08-21T02:34:06;7.63;;;4.10;;
846;SDS011;410;48.954;9.474;2022-08-21T02:36:11;8.67;;;4.40;;
846;SDS011;410;48.954;9.474;2022-08-21T02:38:15;6.93;;;4.20;;
846;SDS011;410;48.954;9.474;2022-08-21T02:40:21;5.83;;;3.60;;
846;SDS011;410;48.954;9.474;2022-08-21T02:42:26;7.87;;;4.10;;
846;SDS011;410;48.954;9.474;2022-08-21T02:44:31;23.03;;;4.97;;
846;SDS011;410;48.954;9.474;2022-08-21T02:46:35;13.60;;;4.90;;
846;SDS011;410;48.954;9.474;2022-08-21T02:48:39;10.77;;;4.90;;
846;SDS011;410;48.954;9.474;2022-08-21T02:50:45;8.03;;;4.47;;
846;SDS011;410;48.954;9.474;2022-08-21T02:52:49;5.93;;;4.00;;
846;SDS011;410;48.954;9.474;2022-08-21T02:54:56;7.83;;;4.10;;
846;SDS011;410;48.954;9.474;2022-08-21T02:56:59;5.47;;;3.73;;
846;SDS011;410;48.954;9.474;2022-08-21T02:59:03;5.60;;;4.27;;
846;SDS011;410;48.954;9.474;2022-08-21T03:01:07;7.37;;;4.00;;
846;SDS011;410;48.954;9.474;2022-08-21T03:03:12;11.10;;;4.00;;
846;SDS011;410;48.954;9.474;2022-08-21T03:05:15;9.07;;;3.87;;
846;SDS011;410;48.954;9.474;2022-08-21T03:07:19;8.40;;;4.00;;
846;SDS011;410;48.954;9.474;2022-08-21T03:09:23;8.30;;;4.50;;
846;SDS011;410;48.954;9.474;2022-08-21T03:11:26;21.57;;;5.43;;
846;SDS011;410;48.954;9.474;2022-08-21T03:13:30;11.80;;;5.47;;
846;SDS011;410;48.954;9.474;2022-08-21T03:15:33;23.63;;;5.23;;
846;SDS011;410;48.954;9.474;2022-08-21T03:17:38;27.40;;;6.03;;
846;SDS011;410;48.954;9.474;2022-08-21T03:19:41;9.80;;;4.30;;
846;SDS011;410;48.954;9.474;2022-08-21T03:21:44;12.53;;;4.40;;
846;SDS011;410;48.954;9.474;2022-08-21T03:23:48;10.50;;;5.20;;
846;SDS011;410;48.954;9.474;2022-08-21T03:25:51;15.90;;;4.67;;
846;SDS011;410;48.954;9.474;2022-08-21T03:27:57;11.63;;;4.63;;
846;SDS011;410;48.954;9.474;2022-08-21T03:30:00;10.87;;;4.93;;
846;SDS011;410;48.954;9.474;2022-08-21T03:32:05;14.97;;;5.17;;
846;SDS011;410;48.954;9.474;2022-08-21T03:34:12;23.17;;;4.67;;
846;SDS011;410;48.954;9.474;2022-08-21T03:36:15;13.33;;;5.00;;
846;SDS011;410;48.954;9.474;2022-08-21T03:38:18;25.73;;;5.70;;
846;SDS011;410;48.954;9.474;2022-08-21T03:40:27;18.30;;;5.00;;
846;SDS011;410;48.954;9.474;2022-08-21T03:42:30;13.67;;;5.10;;
846;SDS011;410;48.954;9.474;2022-08-21T03:44:33;18.13;;;5.77;;
846;SDS011;410;48.954;9.474;2022-08-21T03:46:37;26.27;;;6.17;;
846;SDS011;410;48.954;9.474;2022-08-21T03:48:41;16.27;;;5.73;;
846;SDS011;410;48.954;9.474;2022-08-21T03:50:46;14.93;;;5.47;;
846;SDS011;410;48.954;9.474;2022-08-21T03:52:50;5.80;;;4.40;;
846;SDS011;410;48.954;9.474;2022-08-21T03:54:53;9.87;;;4.77;;
846;SDS011;410;48.954;9.474;2022-08-21T03:56:57;13.93;;;5.33;;
846;SDS011;410;48.954;9.474;2022-08-21T03:59:00;12.40;;;5.13;;
846;SDS011;410;48.954;9.474;2022-08-21T04:01:03;12.93;;;4.50;;
846;SDS011;410;48.954;9.474;2022-08-21T04:03:08;16.63;;;5.63;;
846;SDS011;410;48.954;9.474;2022-08-21T04:05:11;24.40;;;4.90;;
846;SDS011;410;48.954;9.474;2022-08-21T04:07:16;19.40;;;5.40;;
846;SDS011;410;48.954;9.474;2022-08-21T04:09:20;24.93;;;6.30;;
846;SDS011;410;48.954;9.474;2022-08-21T04:11:23;13.80;;;5.50;;
846;SDS011;410;48.954;9.474;2022-08-21T04:13:26;15.77;;;5.30;;
846;SDS011;410;48.954;9.474;2022-08-21T04:15:30;18.50;;;5.60;;
846;SDS011;410;48.954;9.474;2022-08-21T04:17:33;58.27;;;6.90;;
846;SDS011;410;48.954;9.474;2022-08-21T04:19:36;18.27;;;5.27;;
846;SDS011;410;48.954;9.474;2022-08-21T04:21:39;29.83;;;6.30;;
846;SDS011;410;48.954;9.474;2022-08-21T04:23:45;18.73;;;5.40;;
846;SDS011;410;48.954;9.474;2022-08-21T04:25:48;33.00;;;7.47;;
846;SDS011;410;48.954;9.474;2022-08-21T04:27:51;21.10;;;4.90;;
846;SDS011;410;48.954;9.474;2022-08-21T04:29:55;18.27;;;4.90;;
846;SDS011;410;48.954;9.474;2022-08-21T04:31:57;9.77;;;4.20;;
846;SDS011;410;48.954;9.474;2022-08-21T04:34:00;15.80;;;5.43;;
846;SDS011;410;48.954;9.474;2022-08-21T04:36:04;15.47;;;5.50;;
846;SDS011;410;48.954;9.474;2022-08-21T04:38:08;21.17;;;5.13;;
846;SDS011;410;48.954;9.474;2022-08-21T04:40:14;12.33;;;5.10;;
846;SDS011;410;48.954;9.474;2022-08-21T04:42:18;13.07;;;4.93;;
846;SDS011;410;48.954;9.474;2022-08-21T04:44:21;18.93;;;4.93;;
846;SDS011;410;48.954;9.474;2022-08-21T04:46:25;10.87;;;5.07;;
846;SDS011;410;48.954;9.474;2022-08-21T04:48:28;7.97;;;4.60;;
846;SDS011;410;48.954;9.474;2022-08-21T04:50:31;9.87;;;4.50;;
846;SDS011;410;48.954;9.474;2022-08-21T04:52:40;4.37;;;3.80;;
846;SDS011;410;48.954;9.474;2022-08-21T04:54:43;4.80;;;3.67;;
846;SDS011;410;48.954;9.474;2022-08-21T04:56:49;4.03;;;3.63;;
846;SDS011;410;48.954;9.474;2022-08-21T04:58:55;7.70;;;4.00;;
846;SDS011;410;48.954;9.474;2022-08-21T05:01:00;6.60;;;4.77;;
846;SDS011;410;48.954;9.474;2022-08-21T05:03:05;18.30;;;5.77;;
846;SDS011;410;48.954;9.474;2022-08-21T05:05:09;24.80;;;5.10;;
846;SDS011;410;48.954;9.474;2022-08-21T05:07:12;27.20;;;6.50;;
846;SDS011;410;48.954;9.474;2022-08-21T05:09:38;26.53;;;6.30;;
846;SDS011;410;48.954;9.474;2022-08-21T05:11:41;26.33;;;5.70;;
846;SDS011;410;48.954;9.474;2022-08-21T05:13:46;15.97;;;5.13;;
846;SDS011;410;48.954;9.474;2022-08-21T05:15:56;7.87;;;4.90;;
846;SDS011;410;48.954;9.474;2022-08-21T05:18:00;5.70;;;4.50;;
846;SDS011;410;48.954;9.474;2022-08-21T05:20:03;4.40;;;4.00;;
846;SDS011;410;48.954;9.474;2022-08-21T05:22:07;5.93;;;4.60;;
846;SDS011;410;48.954;9.474;2022-08-21T05:24:11;5.23;;;4.37;;
846;SDS011;410;48.954;9.474;2022-08-21T05:26:14;10.33;;;5.03;;
846;SDS011;410;48.954;9.474;2022-08-21T05:28:19;6.17;;;5.07;;
846;SDS011;410;48.954;9.474;2022-08-21T05:30:23;5.10;;;4.60;;
846;SDS011;410;48.954;9.474;2022-08-21T05:32:26;4.97;;;4.30;;
846;SDS011;410;48.954;9.474;2022-08-21T05:34:30;4.50;;;3.93;;
846;SDS011;410;48.954;9.474;2022-08-21T05:36:33;4.50;;;4.10;;
846;SDS011;410;48.954;9.474;2022-08-21T05:38:36;4.80;;;4.40;;
846;SDS011;410;48.954;9.474;2022-08-21T05:40:39;13.47;;;5.10;;
846;SDS011;410;48.954;9.474;2022-08-21T05:42:42;6.00;;;4.70;;
846;SDS011;410;48.954;9.474;2022-08-21T05:44:56;11.20;;;5.73;;
846;SDS011;410;48.954;9.474;2022-08-21T05:47:03;5.93;;;5.33;;
846;SDS011;410;48.954;9.474;2022-08-21T05:49:07;6.33;;;5.73;;
846;SDS011;410;48.954;9.474;2022-08-21T05:51:15;6.00;;;5.40;;
846;SDS011;410;48.954;9.474;2022-08-21T05:53:19;6.63;;;4.93;;
846;SDS011;410;48.954;9.474;2022-08-21T05:55:24;5.37;;;4.87;;
846;SDS011;410;48.954;9.474;2022-08-21T05:57:34;6.33;;;5.70;;
846;SDS011;410;48.954;9.474;2022-08-21T05:59:37;6.17;;;5.57;;
846;SDS011;410;48.954;9.474;2022-08-21T06:01:40;6.53;;;5.27;;
846;SDS011;410;48.954;9.474;2022-08-21T06:03:44;6.00;;;5.40;;
846;SDS011;410;48.954;9.474;2022-08-21T06:05:48;5.80;;;5.20;;
846;SDS011;410;48.954;9.474;2022-08-21T06:07:51;7.10;;;5.13;;
846;SDS011;410;48.954;9.474;2022-08-21T06:09:54;7.93;;;5.10;;
846;SDS011;410;48.954;9.474;2022-08-21T06:11:57;6.20;;;5.10;;
846;SDS011;410;48.954;9.474;2022-08-21T06:14:00;6.73;;;5.77;;
846;SDS011;410;48.954;9.474;2022-08-21T06:16:05;6.63;;;5.00;;
846;SDS011;410;48.954;9.474;2022-08-21T06:18:09;5.93;;;5.33;;
846;SDS011;410;48.954;9.474;2022-08-21T06:20:14;6.17;;;4.87;;
846;SDS011;410;48.954;9.474;2022-08-21T06:22:17;5.27;;;4.73;;
846;SDS011;410;48.954;9.474;2022-08-21T06:24:21;5.43;;;4.70;;
846;SDS011;410;48.954;9.474;2022-08-21T06:26:24;5.83;;;5.17;;
846;SDS011;410;48.954;9.474;2022-08-21T06:28:27;6.17;;;4.87;;
846;SDS011;410;48.954;9.474;2022-08-21T06:30:30;5.93;;;5.23;;
846;SDS011;410;48.954;9.474;2022-08-21T06:32:33;6.20;;;5.60;;
846;SDS011;410;48.954;9.474;2022-08-21T06:34:37;5.83;;;5.30;;
846;SDS011;410;48.954;9.474;2022-08-21T06:36:42;9.00;;;5.00;;
846;SDS011;410;48.954;9.474;2022-08-21T06:38:45;9.90;;;6.10;;
846;SDS011;410;48.954;9.474;2022-08-21T06:40:52;6.00;;;5.50;;
846;SDS011;410;48.954;9.474;2022-08-21T06:42:55;6.30;;;5.40;;
846;SDS011;410;48.954;9.474;2022-08-21T06:44:59;5.77;;;5.00;;
846;SDS011;410;48.954;9.474;2022-08-21T06:47:02;5.33;;;4.83;;
846;SDS011;410;48.954;9.474;2022-08-21T06:49:06;5.60;;;4.70;;
846;SDS011;410;48.954;9.474;2022-08-21T06:51:18;6.90;;;5.10;;
846;SDS011;410;48.954;9.474;2022-08-21T06:53:22;6.40;;;5.20;;
846;SDS011;410;48.954;9.474;2022-08-21T06:55:25;5.60;;;4.93;;
846;SDS011;410;48.954;9.474;2022-08-21T06:57:29;8.20;;;5.07;;
846;SDS011;410;48.954;9.474;2022-08-21T06:59:33;5.33;;;4.83;;
846;SDS011;410;48.954;9.474;2022-08-21T07:01:36;6.50;;;5.40;;
846;SDS011;410;48.954;9.474;2022-08-21T07:03:39;6.50;;;5.20;;
846;SDS011;410;48.954;9.474;2022-08-21T07:05:43;7.70;;;5.20;;
846;SDS011;410;48.954;9.474;2022-08-21T07:07:47;5.50;;;4.90;;
846;SDS011;410;48.954;9.474;2022-08-21T07:09:51;6.40;;;5.00;;
846;SDS011;410;48.954;9.474;2022-08-21T07:11:54;6.33;;;5.03;;
846;SDS011;410;48.954;9.474;2022-08-21T07:13:58;5.20;;;4.70;;
846;SDS011;410;48.954;9.474;2022-08-21T07:16:01;6.60;;;4.40;;
846;SDS011;410;48.954;9.474;2022-08-21T07:18:05;7.10;;;4.80;;
846;SDS011;410;48.954;9.474;2022-08-21T07:20:09;7.20;;;4.17;;
846;SDS011;410;48.954;9.474;2022-08-21T07:22:13;7.13;;;4.17;;
846;SDS011;410;48.954;9.474;2022-08-21T07:24:18;5.33;;;4.20;;
846;SDS011;410;48.954;9.474;2022-08-21T07:26:23;9.90;;;4.73;;
846;SDS011;410;48.954;9.474;2022-08-21T07:28:27;6.13;;;3.83;;
846;SDS011;410;48.954;9.474;2022-08-21T07:30:31;4.90;;;4.43;;
846;SDS011;410;48.954;9.474;2022-08-21T07:32:34;5.90;;;4.70;;
846;SDS011;410;48.954;9.474;2022-08-21T07:34:37;5.50;;;4.50;;
846;SDS011;410;48.954;9.474;2022-08-21T07:36:40;10.63;;;5.40;;
846;SDS011;410;48.954;9.474;2022-08-21T07:38:44;4.80;;;4.30;;
846;SDS011;410;48.954;9.474;2022-08-21T07:40:47;6.17;;;5.10;;
846;SDS011;410;48.954;9.474;2022-08-21T07:42:53;9.20;;;5.17;;
846;SDS011;410;48.954;9.474;2022-08-21T07:44:56;8.30;;;5.07;;
846;SDS011;410;48.954;9.474;2022-08-21T07:46:59;5.97;;;5.00;;
846;SDS011;410;48.954;9.474;2022-08-21T07:49:02;6.97;;;4.90;;
846;SDS011;410;48.954;9.474;2022-08-21T07:51:06;5.90;;;5.30;;
846;SDS011;410;48.954;9.474;2022-08-21T07:53:10;6.10;;;4.77;;
846;SDS011;410;48.954;9.474;2022-08-21T07:55:15;5.37;;;4.87;;
846;SDS011;410;48.954;9.474;2022-08-21T07:57:19;6.33;;;5.20;;
846;SDS011;410;48.954;9.474;2022-08-21T07:59:24;5.67;;;4.77;;
846;SDS011;410;48.954;9.474;2022-08-21T08:01:27;6.47;;;5.80;;
846;SDS011;410;48.954;9.474;2022-08-21T08:03:30;9.20;;;6.10;;
846;SDS011;410;48.954;9.474;2022-08-21T08:05:33;6.30;;;5.20;;
846;SDS011;410;48.954;9.474;2022-08-21T08:07:38;7.77;;;5.70;;
846;SDS011;410;48.954;9.474;2022-08-21T08:09:41;8.73;;;6.30;;
846;SDS011;410;48.954;9.474;2022-08-21T08:11:44;9.20;;;5.13;;
846;SDS011;410;48.954;9.474;2022-08-21T08:13:48;7.10;;;5.47;;
846;SDS011;410;48.954;9.474;2022-08-21T08:15:54;6.73;;;5.40;;
846;SDS011;410;48.954;9.474;2022-08-21T08:17:57;6.90;;;5.53;;
846;SDS011;410;48.954;9.474;2022-08-21T08:20:00;7.20;;;5.90;;
846;SDS011;410;48.954;9.474;2022-08-21T08:22:11;6.00;;;5.40;;
846;SDS011;410;48.954;9.474;2022-08-21T08:24:15;9.87;;;5.27;;
846;SDS011;410;48.954;9.474;2022-08-21T08:26:20;9.20;;;6.03;;
846;SDS011;410;48.954;9.474;2022-08-21T08:28:23;8.63;;;6.37;;
846;SDS011;410;48.954;9.474;2022-08-21T08:30:27;7.33;;;6.17;;
846;SDS011;410;48.954;9.474;2022-08-21T08:32:35;7.10;;;5.73;;
846;SDS011;410;48.954;9.474;2022-08-21T08:34:38;7.37;;;6.37;;
846;SDS011;410;48.954;9.474;2022-08-21T08:36:41;8.97;;;6.00;;
846;SDS011;410;48.954;9.474;2022-08-21T08:38:44;7.97;;;5.90;;
846;SDS011;410;48.954;9.474;2022-08-21T08:40:50;8.77;;;6.10;;
846;SDS011;410;48.954;9.474;2022-08-21T08:42:56;7.67;;;6.37;;
846;SDS011;410;48.954;9.474;2022-08-21T08:45:00;10.00;;;6.53;;
846;SDS011;410;48.954;9.474;2022-08-21T08:47:05;7.80;;;6.10;;
846;SDS011;410;48.954;9.474;2022-08-21T08:49:11;7.30;;;6.33;;
846;SDS011;410;48.954;9.474;2022-08-21T08:51:21;10.20;;;6.60;;
846;SDS011;410;48.954;9.474;2022-08-21T08:53:28;6.20;;;5.60;;
846;SDS011;410;48.954;9.474;2022-08-21T08:55:35;7.43;;;6.57;;
846;SDS011;410;48.954;9.474;2022-08-21T08:57:43;9.23;;;6.50;;
846;SDS011;410;48.954;9.474;2022-08-21T08:59:51;7.90;;;6.77;;
846;SDS011;410;48.954;9.474;2022-08-21T09:01:56;8.20;;;6.70;;
846;SDS011;410;48.954;9.474;2022-08-21T09:03:59;8.47;;;6.50;;
846;SDS011;410;48.954;9.474;2022-08-21T09:06:06;8.03;;;6.50;;
846;SDS011;410;48.954;9.474;2022-08-21T09:08:26;8.60;;;6.70;;
846;SDS011;410;48.954;9.474;2022-08-21T09:10:37;7.43;;;6.30;;
846;SDS011;410;48.954;9.474;2022-08-21T09:12:45;10.87;;;6.93;;
846;SDS011;410;48.954;9.474;2022-08-21T09:15:02;7.97;;;7.23;;
846;SDS011;410;48.954;9.474;2022-08-21T09:17:11;7.90;;;7.10;;
846;SDS011;410;48.954;9.474;2022-08-21T09:19:23;7.90;;;6.30;;
846;SDS011;410;48.954;9.474;2022-08-21T09:21:37;7.20;;;6.00;;
846;SDS011;410;48.954;9.474;2022-08-21T09:23:47;7.13;;;6.30;;
846;SDS011;410;48.954;9.474;2022-08-21T09:25:56;8.90;;;6.77;;
846;SDS011;410;48.954;9.474;2022-08-21T09:28:02;7.53;;;6.43;;
846;SDS011;410;48.954;9.474;2022-08-21T09:30:06;7.53;;;6.47;;
846;SDS011;410;48.954;9.474;2022-08-21T09:32:14;8.50;;;7.03;;
846;SDS011;410;48.954;9.474;2022-08-21T09:34:24;7.43;;;6.43;;
846;SDS011;410;48.954;9.474;2022-08-21T09:36:31;12.37;;;6.50;;
846;SDS011;410;48.954;9.474;2022-08-21T09:38:40;8.07;;;6.77;;
846;SDS011;410;48.954;9.474;2022-08-21T09:40:45;10.63;;;7.17;;
846;SDS011;410;48.954;9.474;2022-08-21T09:42:54;9.60;;;5.70;;
846;SDS011;410;48.954;9.474;2022-08-21T09:45:08;8.23;;;6.20;;
846;SDS011;410;48.954;9.474;2022-08-21T09:47:13;6.30;;;5.40;;
846;SDS011;410;48.954;9.474;2022-08-21T09:49:27;6.50;;;5.90;;
846;SDS011;410;48.954;9.474;2022-08-21T09:51:32;7.73;;;5.90;;
846;SDS011;410;48.954;9.474;2022-08-21T09:53:37;6.60;;;5.53;;
846;SDS011;410;48.954;9.474;2022-08-21T09:55:49;5.60;;;5.00;;
846;SDS011;410;48.954;9.474;2022-08-21T09:58:11;7.53;;;5.53;;
846;SDS011;410;48.954;9.474;2022-08-21T10:00:19;7.60;;;5.60;;
846;SDS011;410;48.954;9.474;2022-08-21T10:02:28;6.70;;;5.43;;
846;SDS011;410;48.954;9.474;2022-08-21T10:04:34;7.73;;;5.17;;
846;SDS011;410;48.954;9.474;2022-08-21T10:06:37;9.13;;;5.23;;
846;SDS011;410;48.954;9.474;2022-08-21T10:08:42;6.83;;;4.93;;
846;SDS011;410;48.954;9.474;2022-08-21T10:10:45;8.97;;;5.80;;
846;SDS011;410;48.954;9.474;2022-08-21T10:12:58;11.10;;;5.60;;
846;SDS011;410;48.954;9.474;2022-08-21T10:15:08;8.70;;;5.33;;
846;SDS011;410;48.954;9.474;2022-08-21T10:17:17;8.67;;;5.70;;
846;SDS011;410;48.954;9.474;2022-08-21T10:19:25;6.63;;;4.70;;
846;SDS011;410;48.954;9.474;2022-08-21T10:21:43;5.77;;;5.13;;
846;SDS011;410;48.954;9.474;2022-08-21T10:24:02;5.63;;;4.47;;
846;SDS011;410;48.954;9.474;2022-08-21T10:26:14;6.20;;;5.57;;
846;SDS011;410;48.954;9.474;2022-08-21T10:28:30;7.33;;;4.77;;
846;SDS011;410;48.954;9.474;2022-08-21T10:30:36;8.10;;;4.40;;
846;SDS011;410;48.954;9.474;2022-08-21T10:32:59;7.50;;;4.93;;
846;SDS011;410;48.954;9.474;2022-08-21T10:35:12;6.50;;;5.33;;
846;SDS011;410;48.954;9.474;2022-08-21T10:37:22;8.97;;;4.80;;
846;SDS011;410;48.954;9.474;2022-08-21T10:39:31;7.33;;;4.20;;
846;SDS011;410;48.954;9.474;2022-08-21T10:41:41;8.00;;;4.93;;
846;SDS011;410;48.954;9.474;2022-08-21T10:43:52;9.37;;;5.00;;
846;SDS011;410;48.954;9.474;2022-08-21T10:46:02;6.03;;;4.80;;
846;SDS011;410;48.954;9.474;2022-08-21T10:48:13;7.00;;;5.00;;
846;SDS011;410;48.954;9.474;2022-08-21T10:50:21;6.50;;;4.80;;
846;SDS011;410;48.954;9.474;2022-08-21T10:52:36;7.30;;;4.70;;
846;SDS011;410;48.954;9.474;2022-08-21T10:54:59;8.60;;;4.90;;
846;SDS011;410;48.954;9.474;2022-08-21T10:57:09;6.77;;;4.53;;
846;SDS011;410;48.954;9.474;2022-08-21T10:59:27;6.57;;;4.40;;
846;SDS011;410;48.954;9.474;2022-08-21T11:01:44;6.80;;;4.80;;
846;SDS011;410;48.954;9.474;2022-08-21T11:03:52;6.60;;;4.73;;
846;SDS011;410;48.954;9.474;2022-08-21T11:06:00;5.90;;;4.90;;
846;SDS011;410;48.954;9.474;2022-08-21T11:08:08;7.03;;;4.50;;
846;SDS011;410;48.954;9.474;2022-08-21T11:10:17;5.53;;;3.93;;
846;SDS011;410;48.954;9.474;2022-08-21T11:12:27;5.00;;;4.50;;
846;SDS011;410;48.954;9.474;2022-08-21T11:14:39;6.87;;;4.67;;
846;SDS011;410;48.954;9.474;2022-08-21T11:16:52;7.60;;;4.37;;
846;SDS011;410;48.954;9.474;2022-08-21T11:19:02;7.70;;;5.00;;
846;SDS011;410;48.954;9.474;2022-08-21T11:21:13;9.47;;;5.00;;
846;SDS011;410;48.954;9.474;2022-08-21T11:23:24;8.43;;;5.30;;
846;SDS011;410;48.954;9.474;2022-08-21T11:25:30;6.20;;;4.63;;
846;SDS011;410;48.954;9.474;2022-08-21T11:27:41;6.97;;;4.60;;
846;SDS011;410;48.954;9.474;2022-08-21T11:29:48;6.43;;;4.33;;
846;SDS011;410;48.954;9.474;2022-08-21T11:31:56;8.10;;;5.17;;
846;SDS011;410;48.954;9.474;2022-08-21T11:34:10;7.03;;;4.33;;
846;SDS011;410;48.954;9.474;2022-08-21T11:36:20;6.53;;;4.83;;
846;SDS011;410;48.954;9.474;2022-08-21T11:38:27;5.80;;;4.43;;
846;SDS011;410;48.954;9.474;2022-08-21T11:40:36;6.00;;;4.80;;
846;SDS011;410;48.954;9.474;2022-08-21T11:42:48;6.13;;;4.60;;
846;SDS011;410;48.954;9.474;2022-08-21T11:44:56;7.47;;;4.77;;
846;SDS011;410;48.954;9.474;2022-08-21T11:47:06;8.70;;;4.50;;
846;SDS011;410;48.954;9.474;2022-08-21T11:49:21;6.83;;;4.40;;
846;SDS011;410;48.954;9.474;2022-08-21T11:51:33;7.07;;;4.00;;
846;SDS011;410;48.954;9.474;2022-08-21T11:53:43;6.47;;;4.33;;
846;SDS011;410;48.954;9.474;2022-08-21T11:55:55;5.97;;;4.03;;
846;SDS011;410;48.954;9.474;2022-08-21T11:58:04;6.50;;;4.37;;
846;SDS011;410;48.954;9.474;2022-08-21T12:00:11;5.40;;;3.60;;
846;SDS011;410;48.954;9.474;2022-08-21T12:02:18;4.23;;;3.83;;
846;SDS011;410;48.954;9.474;2022-08-21T12:04:24;5.40;;;4.03;;
846;SDS011;410;48.954;9.474;2022-08-21T12:06:31;8.10;;;4.23;;
846;SDS011;410;48.954;9.474;2022-08-21T12:08:36;4.83;;;4.20;;
846;SDS011;410;48.954;9.474;2022-08-21T12:10:41;4.83;;;3.67;;
846;SDS011;410;48.954;9.474;2022-08-21T12:12:44;6.30;;;3.90;;
846;SDS011;410;48.954;9.474;2022-08-21T12:14:50;4.90;;;3.60;;
846;SDS011;410;48.954;9.474;2022-08-21T12:17:06;5.93;;;4.00;;
846;SDS011;410;48.954;9.474;2022-08-21T12:19:14;5.43;;;3.87;;
846;SDS011;410;48.954;9.474;2022-08-21T12:21:31;6.90;;;4.07;;
846;SDS011;410;48.954;9.474;2022-08-21T12:23:43;8.43;;;3.97;;
846;SDS011;410;48.954;9.474;2022-08-21T12:25:58;5.40;;;3.80;;
846;SDS011;410;48.954;9.474;2022-08-21T12:28:06;7.07;;;3.87;;
846;SDS011;410;48.954;9.474;2022-08-21T12:30:21;5.73;;;4.17;;
846;SDS011;410;48.954;9.474;2022-08-21T12:32:42;8.10;;;4.23;;
846;SDS011;410;48.954;9.474;2022-08-21T12:34:49;5.50;;;3.73;;
846;SDS011;410;48.954;9.474;2022-08-21T12:36:56;7.90;;;4.10;;
846;SDS011;410;48.954;9.474;2022-08-21T12:39:03;7.23;;;4.17;;
846;SDS011;410;48.954;9.474;2022-08-21T12:41:10;5.90;;;4.40;;
846;SDS011;410;48.954;9.474;2022-08-21T12:43:19;5.70;;;4.10;;
846;SDS011;410;48.954;9.474;2022-08-21T12:45:26;5.30;;;4.30;;
846;SDS011;410;48.954;9.474;2022-08-21T12:47:32;5.73;;;4.30;;
846;SDS011;410;48.954;9.474;2022-08-21T12:49:40;5.30;;;4.07;;
846;SDS011;410;48.954;9.474;2022-08-21T12:51:50;4.70;;;4.17;;
846;SDS011;410;48.954;9.474;2022-08-21T12:53:57;6.40;;;3.60;;
846;SDS011;410;48.954;9.474;2022-08-21T12:56:01;5.30;;;3.80;;
846;SDS011;410;48.954;9.474;2022-08-21T12:58:05;5.87;;;4.20;;
846;SDS011;410;48.954;9.474;2022-08-21T13:00:09;6.90;;;3.67;;
846;SDS011;410;48.954;9.474;2022-08-21T13:02:18;6.00;;;3.83;;
846;SDS011;410;48.954;9.474;2022-08-21T13:04:26;5.73;;;3.80;;
846;SDS011;410;48.954;9.474;2022-08-21T13:06:37;5.07;;;3.70;;
846;SDS011;410;48.954;9.474;2022-08-21T13:08:41;5.77;;;3.30;;
846;SDS011;410;48.954;9.474;2022-08-21T13:10:48;4.67;;;3.33;;
846;SDS011;410;48.954;9.474;2022-08-21T13:12:53;4.97;;;3.27;;
846;SDS011;410;48.954;9.474;2022-08-21T13:14:58;4.20;;;3.50;;
846;SDS011;410;48.954;9.474;2022-08-21T13:17:04;6.50;;;3.60;;
846;SDS011;410;48.954;9.474;2022-08-21T13:19:11;4.70;;;3.80;;
846;SDS011;410;48.954;9.474;2022-08-21T13:21:27;4.90;;;3.30;;
846;SDS011;410;48.954;9.474;2022-08-21T13:23:32;5.90;;;3.67;;
846;SDS011;410;48.954;9.474;2022-08-21T13:25:36;4.87;;;3.43;;